Ambrosia Lake, New Mexico
Current Conditions -  °F | °C
As of 11:17 AM on Thursday 27 Nov 2014 (Local Time) from KGNT Reporting Station
Clear Clear  
Wind Chill: 52°   Ceiling: Unl
Heat Index: 52°   Visibility: 10mi
Dew Point: 18°   Wind: 5mph
Humidity: 26%   Direction: 360°N
Pressure: 30.48"   Gusts: NA
Location:  35.2644°N, 107.733°W
Report Text: KGNT 271817Z AUTO 36004KT 10SM CLR 11/M08 A3048 RMK AO2
Loading
Personal Weather Stations






























Interactive Weather Map New forecast layout! Learn more

10-Day Weather Forecast

Advertisements
Track Severe Weather on mobile